Time;durP1;ratioP1;P1;durP2;ratioP2;P2;SDS_P1;SDS_P2;PMS_P1;PMS_P2;Temp;Humidity;BMP_temperature;BMP_pressure;BME280_temperature;BME280_humidity;BME280_pressure;Samples;Min_cycle;Max_cycle;Signal;HPM_P1;HPM_P2
2020/12/19 00:00:52;;;;;;;66.27;25.07;;;;;;;0.66;83.41;101278.41;126679;1098;23382;-56
2020/12/19 00:03:21;;;;;;;66.17;23.40;;;;;;;0.66;82.87;101268.17;126178;1098;26826;-58
2020/12/19 00:05:50;;;;;;;62.20;23.20;;;;;;;0.67;83.50;101267.02;126032;1098;23449;-58
2020/12/19 00:08:20;;;;;;;67.73;25.13;;;;;;;0.69;83.30;101255.62;126122;1098;27973;-56
2020/12/19 00:10:49;;;;;;;62.17;23.67;;;;;;;0.68;82.92;101254.06;126079;1098;23382;-58
2020/12/19 00:13:18;;;;;;;69.77;25.73;;;;;;;0.69;82.92;101250.92;126105;1098;23268;-56
2020/12/19 00:15:48;;;;;;;65.47;25.30;;;;;;;0.69;83.16;101250.92;126044;1098;26431;-55
2020/12/19 00:18:17;;;;;;;64.00;26.05;;;;;;;0.73;83.46;101245.43;126058;1098;23383;-58
2020/12/19 00:20:47;;;;;;;63.53;27.10;;;;;;;0.75;83.27;101252.12;126116;1098;23451;-57
2020/12/19 00:23:16;;;;;;;63.15;23.73;;;;;;;0.76;83.11;101250.16;126194;1098;25025;-56
2020/12/19 00:25:46;;;;;;;62.57;23.17;;;;;;;0.77;83.23;101248.98;126003;1098;23325;-56
2020/12/19 00:28:17;;;;;;;69.90;25.67;;;;;;;0.76;83.15;101259.20;126021;1098;23394;-54
2020/12/19 00:30:47;;;;;;;69.87;25.00;;;;;;;0.76;84.00;101259.20;126128;1098;23413;-55
2020/12/19 00:33:16;;;;;;;67.67;26.43;;;;;;;0.77;83.43;101258.02;126092;1098;23313;-57
2020/12/19 00:35:46;;;;;;;71.13;27.93;;;;;;;0.82;83.50;101254.11;126308;1098;23787;-56
2020/12/19 00:38:16;;;;;;;70.90;25.93;;;;;;;0.87;83.44;101258.45;125985;1098;27803;-55
2020/12/19 00:40:45;;;;;;;63.58;24.85;;;;;;;0.89;83.65;101256.09;126169;1098;26792;-58
2020/12/19 00:43:15;;;;;;;55.77;22.13;;;;;;;0.91;83.50;101268.25;126050;1098;23418;-53
2020/12/19 00:45:44;;;;;;;59.73;21.90;;;;;;;0.93;83.84;101260.43;126111;1098;23375;-55
2020/12/19 00:48:13;;;;;;;62.77;22.87;;;;;;;0.95;83.31;101262.78;126069;1098;23517;-58
2020/12/19 00:50:42;;;;;;;58.17;22.60;;;;;;;0.93;83.69;101260.43;125997;1098;26441;-57
2020/12/19 00:53:13;;;;;;;56.63;20.35;;;;;;;0.89;83.83;101264.34;125924;1098;27019;-57
2020/12/19 00:55:42;;;;;;;59.83;21.77;;;;;;;0.86;83.92;101259.61;126104;1098;23338;-55
2020/12/19 00:58:11;;;;;;;62.73;23.47;;;;;;;0.84;83.28;101257.25;125991;1099;23392;-54
2020/12/19 01:00:40;;;;;;;56.80;20.80;;;;;;;0.84;83.98;101262.75;126198;1100;23328;-56
2020/12/19 01:03:10;;;;;;;53.57;21.43;;;;;;;0.83;84.01;101259.20;126171;1098;23382;-56
2020/12/19 01:05:39;;;;;;;57.60;22.87;;;;;;;0.85;83.37;101258.05;125966;1098;23490;-58
2020/12/19 01:08:09;;;;;;;52.58;19.40;;;;;;;0.86;83.39;101267.85;126126;1098;23328;-56
2020/12/19 01:10:39;;;;;;;53.35;21.25;;;;;;;0.85;84.13;101258.81;126084;1098;23379;-54
2020/12/19 01:13:09;;;;;;;60.70;21.42;;;;;;;0.86;83.90;101256.86;126166;1098;23364;-56
2020/12/19 01:15:39;;;;;;;66.80;26.48;;;;;;;0.84;83.81;101251.75;126077;1098;23377;-55
2020/12/19 01:18:09;;;;;;;60.05;24.40;;;;;;;0.83;84.17;101256.45;126149;1094;26161;-57
2020/12/19 01:20:38;;;;;;;58.83;21.40;;;;;;;0.85;83.64;101258.81;126104;1100;23322;-54
2020/12/19 01:23:07;;;;;;;53.77;19.57;;;;;;;0.86;84.09;101259.61;126078;1098;23322;-57
2020/12/19 01:25:36;;;;;;;56.37;19.93;;;;;;;0.83;83.55;101256.45;126082;1098;23425;-56
2020/12/19 01:28:05;;;;;;;51.15;17.45;;;;;;;0.85;84.18;101255.30;126120;1098;23327;-55
2020/12/19 01:30:36;;;;;;;54.20;19.70;;;;;;;0.88;84.13;101249.01;126076;1098;29429;-57
2020/12/19 01:33:06;;;;;;;53.37;22.93;;;;;;;0.89;83.76;101248.61;126098;1098;27825;-56
2020/12/19 01:35:35;;;;;;;58.77;23.93;;;;;;;0.94;83.72;101247.45;126222;1098;23325;-57
2020/12/19 01:38:04;;;;;;;61.37;27.30;;;;;;;0.97;84.01;101239.23;126109;1099;27977;-57
2020/12/19 01:40:34;;;;;;;52.53;23.37;;;;;;;0.97;83.77;101228.23;126053;1098;23324;-55
2020/12/19 01:43:04;;;;;;;;;;;;;;;0.98;83.91;101223.50;126105;1098;26956;-57
2020/12/19 01:45:33;;;;;;;58.77;22.23;;;;;;;0.95;83.67;101230.59;126223;1099;21511;-56
2020/12/19 01:48:14;;;;;;;54.27;20.53;;;;;;;0.98;84.49;101223.50;126091;1099;23434;-58
2020/12/19 01:50:43;;;;;;;54.00;20.30;;;;;;;0.99;84.03;101222.34;126150;1098;23312;-57
2020/12/19 01:53:12;;;;;;;56.03;18.60;;;;;;;0.99;83.77;101209.38;126104;1099;23438;-56
2020/12/19 01:55:42;;;;;;;49.40;17.83;;;;;;;1.01;83.90;101214.48;126091;1098;23859;-55
2020/12/19 01:58:12;;;;;;;50.40;18.55;;;;;;;1.02;83.98;101214.08;126214;1100;23569;-56
2020/12/19 02:00:42;;;;;;;46.25;18.75;;;;;;;1.05;84.37;101204.27;126292;1099;23343;-56
2020/12/19 02:03:11;;;;;;;46.40;17.30;;;;;;;1.03;84.47;101206.63;126246;1100;23328;-57
2020/12/19 02:05:42;;;;;;;50.93;19.30;;;;;;;1.00;84.49;101199.94;126240;1100;23444;-54
2020/12/19 02:08:13;;;;;;;53.67;19.20;;;;;;;1.01;83.82;101212.52;126031;1098;23343;-56
2020/12/19 02:10:42;;;;;;;51.07;20.07;;;;;;;1.03;84.10;101207.42;126042;1098;26319;-57
2020/12/19 02:13:12;;;;;;;56.57;22.00;;;;;;;1.03;84.14;101204.67;126113;1098;23382;-55
2020/12/19 02:15:41;;;;;;;56.37;21.82;;;;;;;1.05;84.42;101209.77;126044;1099;23337;-55
2020/12/19 02:18:11;;;;;;;52.10;19.85;;;;;;;1.05;84.28;101199.56;126252;1098;23375;-54
2020/12/19 02:20:40;;;;;;;53.02;20.02;;;;;;;1.08;84.25;101207.02;126368;1098;23331;-58
2020/12/19 02:23:10;;;;;;;47.90;18.57;;;;;;;1.13;83.80;101205.84;126143;1098;23389;-57
2020/12/19 02:25:39;;;;;;;44.90;17.43;;;;;;;1.14;83.97;101201.94;126057;1098;23325;-55
2020/12/19 02:28:09;;;;;;;46.27;18.50;;;;;;;1.15;84.22;101197.98;126201;1098;25298;-57
2020/12/19 02:30:39;;;;;;;45.85;17.82;;;;;;;1.15;83.69;101195.23;126114;1098;23382;-54
2020/12/19 02:33:08;;;;;;;43.37;17.20;;;;;;;1.13;83.60;101186.59;126341;1098;23773;-54
2020/12/19 02:35:38;;;;;;;45.03;16.20;;;;;;;1.08;83.56;101185.02;126053;1098;23386;-56
2020/12/19 02:38:07;;;;;;;44.55;16.02;;;;;;;1.05;83.82;101183.07;126293;1099;25111;-55
2020/12/19 02:40:37;;;;;;;42.65;16.30;;;;;;;1.04;84.02;101177.94;126256;1098;23312;-56
2020/12/19 02:43:06;;;;;;;43.97;15.90;;;;;;;1.01;83.63;101176.78;126304;1098;23435;-56
2020/12/19 02:45:35;;;;;;;42.80;15.85;;;;;;;0.99;83.49;101168.14;126136;1098;23339;-57
2020/12/19 02:48:05;;;;;;;41.73;13.60;;;;;;;0.95;83.55;101164.60;126175;1098;23441;-56
2020/12/19 02:50:34;;;;;;;43.33;14.70;;;;;;;0.95;83.85;101166.56;126248;1098;23601;-57
2020/12/19 02:53:03;;;;;;;40.13;13.77;;;;;;;0.94;83.33;101160.27;126120;1099;27364;-57
2020/12/19 02:55:32;;;;;;;36.30;13.27;;;;;;;0.93;83.62;101153.21;126200;1098;23443;-56
2020/12/19 02:58:02;;;;;;;33.00;13.10;;;;;;;0.90;83.52;101153.19;126218;1098;23429;-54
2020/12/19 03:00:31;;;;;;;37.00;13.17;;;;;;;0.85;83.68;101150.84;126109;1098;25979;-57
2020/12/19 03:03:01;;;;;;;35.53;13.00;;;;;;;0.77;83.00;101145.33;126153;1098;23324;-57
2020/12/19 03:05:31;;;;;;;40.60;12.13;;;;;;;0.74;83.26;101148.87;126328;1093;23883;-57
2020/12/19 03:08:00;;;;;;;40.30;15.33;;;;;;;0.74;83.07;101143.38;126329;1098;23320;-57
2020/12/19 03:10:30;;;;;;;39.85;12.58;;;;;;;0.74;83.04;101145.33;126524;1093;24906;-58
2020/12/19 03:12:59;;;;;;;40.43;13.68;;;;;;;0.73;83.16;101141.00;126233;1098;26555;-58
2020/12/19 03:15:31;;;;;;;33.67;12.23;;;;;;;0.72;83.24;101137.45;126105;1098;28327;-59
2020/12/19 03:18:01;;;;;;;33.03;12.93;;;;;;;0.71;82.92;101135.89;126263;1098;23474;-60
2020/12/19 03:20:30;;;;;;;35.35;12.85;;;;;;;0.71;82.95;101127.66;126140;1098;23788;-56
2020/12/19 03:23:00;;;;;;;34.95;13.60;;;;;;;0.67;83.52;101132.36;126105;1098;23414;-58
2020/12/19 03:25:29;;;;;;;35.70;12.73;;;;;;;0.65;82.72;101131.17;126229;1098;23325;-57
2020/12/19 03:27:58;;;;;;;39.73;13.67;;;;;;;0.62;83.26;101132.73;126075;1093;23394;-55
2020/12/19 03:30:27;;;;;;;33.80;12.37;;;;;;;0.60;83.42;101128.83;126195;1099;23318;-57
2020/12/19 03:32:57;;;;;;;33.67;11.97;;;;;;;0.59;82.67;101130.78;126131;1098;23325;-54
2020/12/19 03:35:26;;;;;;;37.15;12.23;;;;;;;0.57;83.19;101133.13;126316;1098;23385;-58
2020/12/19 03:37:55;;;;;;;37.05;13.30;;;;;;;0.53;82.94;101109.56;126128;1098;23328;-57
2020/12/19 03:40:24;;;;;;;40.63;12.83;;;;;;;0.50;82.87;101116.62;126200;1098;27307;-54
2020/12/19 03:42:53;;;;;;;37.67;13.27;;;;;;;0.48;83.32;101112.69;126119;1098;23325;-58
2020/12/19 03:45:23;;;;;;;35.77;13.70;;;;;;;0.44;83.38;101115.44;130289;1099;24096;-56
2020/12/19 03:47:55;;;;;;;31.43;11.77;;;;;;;0.44;82.75;101120.92;128159;1099;23413;-57
2020/12/19 03:50:24;;;;;;;32.95;11.80;;;;;;;0.44;83.08;101122.88;126222;1098;23322;-58
2020/12/19 03:52:53;;;;;;;31.73;11.30;;;;;;;0.44;82.99;101120.92;126130;1098;27944;-57
2020/12/19 03:55:22;;;;;;;34.20;11.57;;;;;;;0.38;82.46;101118.95;126046;1098;23399;-57
2020/12/19 03:57:52;;;;;;;36.20;11.53;;;;;;;0.35;83.05;101112.27;125963;1098;23413;-55
2020/12/19 04:00:21;;;;;;;29.63;10.93;;;;;;;0.35;83.16;101119.73;125998;1098;27483;-56
2020/12/19 04:02:50;;;;;;;36.40;11.53;;;;;;;0.34;83.36;101118.95;126040;1098;23318;-55
2020/12/19 04:05:20;;;;;;;30.50;11.05;;;;;;;0.34;83.29;101118.16;126046;1098;23328;-56
2020/12/19 04:07:49;;;;;;;33.63;12.30;;;;;;;0.32;83.13;101115.80;126021;1098;23378;-58
2020/12/19 04:10:18;;;;;;;37.77;14.00;;;;;;;0.32;82.74;101115.01;126276;1098;23321;-57
2020/12/19 04:12:48;;;;;;;39.77;14.87;;;;;;;0.31;82.73;101113.45;126356;1099;23301;-58
2020/12/19 04:15:22;;;;;;;40.23;13.27;;;;;;;0.33;82.47;101122.09;126205;1099;23382;-55
2020/12/19 04:17:52;;;;;;;38.10;13.97;;;;;;;0.33;82.39;101119.34;126215;1098;23400;-57
2020/12/19 04:20:22;;;;;;;36.45;12.40;;;;;;;0.33;82.63;101120.11;126165;1093;23379;-54
2020/12/19 04:22:51;;;;;;;34.07;12.20;;;;;;;0.31;82.74;101121.69;126260;1098;23447;-58
2020/12/19 04:25:21;;;;;;;40.33;13.60;;;;;;;0.30;82.26;101114.61;126131;1098;23490;-59
2020/12/19 04:27:50;;;;;;;31.62;11.43;;;;;;;0.29;82.86;101111.08;126133;1098;23458;-58
2020/12/19 04:30:19;;;;;;;35.63;12.57;;;;;;;0.30;82.23;101115.41;126159;1098;23379;-59
2020/12/19 04:32:48;;;;;;;32.80;12.10;;;;;;;0.25;82.41;101115.77;126231;1099;23793;-61
2020/12/19 04:35:18;;;;;;;34.27;11.83;;;;;;;0.26;82.48;101120.11;126384;1098;28391;-57
2020/12/19 04:37:48;;;;;;;32.30;11.30;;;;;;;0.27;82.94;101113.42;126518;1099;23336;-57
2020/12/19 04:40:18;;;;;;;34.17;11.77;;;;;;;0.27;82.13;101124.41;126373;1098;23328;-57
2020/12/19 04:42:48;;;;;;;29.37;10.63;;;;;;;0.27;82.34;101116.17;126451;1099;26855;-55
2020/12/19 04:45:17;;;;;;;33.30;12.25;;;;;;;0.26;82.79;101117.36;126421;1098;23340;-61
2020/12/19 04:47:46;;;;;;;34.10;14.93;;;;;;;0.19;82.86;101120.07;126443;1098;23786;-58
2020/12/19 04:50:17;;;;;;;39.07;16.37;;;;;;;0.13;82.36;101115.34;126411;1098;23406;-57
2020/12/19 04:52:45;;;;;;;;;;;;;;;0.08;82.50;101111.03;126571;1098;23377;-57
2020/12/19 04:55:14;;;;;;;31.97;12.47;;;;;;;0.07;82.83;101112.19;126359;1098;21499;-56
2020/12/19 04:57:46;;;;;;;30.33;12.63;;;;;;;0.08;82.45;101112.98;126504;1098;23891;-58
2020/12/19 05:00:15;;;;;;;37.93;13.77;;;;;;;0.08;82.45;101107.49;126382;1098;23567;-54
2020/12/19 05:02:45;;;;;;;45.20;17.97;;;;;;;0.05;82.63;101114.54;126571;1098;27853;-56
2020/12/19 05:05:14;;;;;;;52.00;18.70;;;;;;;0.01;82.10;101108.25;126486;1098;23326;-56
2020/12/19 05:07:43;;;;;;;47.57;18.67;;;;;;;-0.04;82.13;101120.38;126480;1098;23347;-56
2020/12/19 05:10:13;;;;;;;40.60;16.33;;;;;;;-0.06;82.56;101108.20;126340;1098;23326;-54
2020/12/19 05:12:42;;;;;;;32.28;12.82;;;;;;;-0.09;82.88;101115.28;126599;1098;26398;-56
2020/12/19 05:15:13;;;;;;;32.87;13.37;;;;;;;-0.09;82.56;101114.48;126367;1098;23332;-55
2020/12/19 05:17:42;;;;;;;37.80;13.30;;;;;;;-0.14;82.28;101121.13;126347;1098;23343;-55
2020/12/19 05:20:11;;;;;;;35.40;13.63;;;;;;;-0.19;82.84;101121.48;126829;1098;26857;-56
2020/12/19 05:22:40;;;;;;;35.23;13.07;;;;;;;-0.21;82.51;101121.08;126438;1098;23330;-57
2020/12/19 05:25:10;;;;;;;;;;;;;;;-0.21;82.63;101123.06;126453;1098;23511;-54
2020/12/19 05:27:42;;;;;;;34.03;13.93;;;;;;;-0.20;83.24;101124.62;126511;1098;21483;-57
2020/12/19 05:30:12;;;;;;;38.90;13.63;;;;;;;-0.22;82.91;101118.73;126505;1098;26061;-54
2020/12/19 05:32:48;;;;;;;39.25;13.32;;;;;;;-0.24;82.62;101118.33;126445;1098;23417;-57
2020/12/19 05:35:19;;;;;;;32.80;12.00;;;;;;;-0.24;83.17;101127.35;126466;1098;23336;-53
2020/12/19 05:37:58;;;;;;;31.03;11.27;;;;;;;-0.24;82.97;101121.87;126437;1098;23390;-61
2020/12/19 05:40:29;;;;;;;29.33;9.63;;;;;;;-0.24;82.27;101123.81;126467;1098;26312;-54
2020/12/19 05:42:58;;;;;;;33.43;12.20;;;;;;;-0.28;82.93;101112.04;126532;1100;23345;-59
2020/12/19 05:45:29;;;;;;;35.63;11.87;;;;;;;-0.32;82.59;101117.52;126420;1099;23312;-56
2020/12/19 05:47:59;;;;;;;35.50;13.17;;;;;;;-0.32;82.60;101125.75;126436;1098;23348;-56
2020/12/19 05:50:29;;;;;;;39.13;13.05;;;;;;;-0.33;82.21;101115.17;126399;1099;23345;-55
2020/12/19 05:53:00;;;;;;;38.37;14.33;;;;;;;-0.32;83.19;101123.00;126399;1098;23737;-55
2020/12/19 05:55:29;;;;;;;42.70;18.40;;;;;;;-0.29;82.67;101124.20;126427;1098;23348;-54
2020/12/19 05:58:01;;;;;;;53.33;24.60;;;;;;;-0.33;82.56;101118.67;126299;1098;23313;-57
2020/12/19 06:00:32;;;;;;;47.93;23.13;;;;;;;-0.33;82.38;101115.93;126365;1099;23322;-54
2020/12/19 06:03:05;;;;;;;48.97;21.53;;;;;;;-0.32;82.63;101111.23;126467;1098;23317;-53
2020/12/19 06:05:35;;;;;;;41.87;21.87;;;;;;;-0.33;82.72;101112.42;126408;1098;27201;-57
2020/12/19 06:08:06;;;;;;;54.00;22.87;;;;;;;-0.33;82.52;101115.17;126031;1098;27752;-60
2020/12/19 06:10:35;;;;;;;46.73;23.50;;;;;;;-0.35;82.97;101120.25;126203;1098;23448;-56
2020/12/19 06:13:11;;;;;;;40.80;19.50;;;;;;;-0.36;82.68;101116.72;126395;1099;23390;-56
2020/12/19 06:15:59;;;;;;;32.37;15.50;;;;;;;-0.38;82.30;101118.26;126251;1098;23614;-60
2020/12/19 06:18:44;;;;;;;34.93;13.30;;;;;;;-0.43;82.62;101119.41;127003;1100;23476;-55
2020/12/19 06:21:14;;;;;;;31.43;12.27;;;;;;;-0.46;82.48;101111.95;126333;1098;23424;-55
2020/12/19 06:23:45;;;;;;;39.10;15.45;;;;;;;-0.45;82.63;101115.47;126772;1099;26314;-54
2020/12/19 06:26:15;;;;;;;40.33;13.93;;;;;;;-0.47;82.53;101113.11;126422;1098;26789;-58
2020/12/19 06:28:49;;;;;;;32.53;12.95;;;;;;;-0.47;83.04;101120.55;126525;1098;23376;-57
2020/12/19 06:31:20;;;;;;;32.53;12.60;;;;;;;-0.48;82.22;101118.99;126359;1098;23390;-57
2020/12/19 06:33:51;;;;;;;35.07;14.90;;;;;;;-0.53;82.43;101122.08;126497;1099;23483;-55
2020/12/19 06:36:29;;;;;;;45.00;18.63;;;;;;;-0.50;83.16;101127.61;126475;1098;23339;-58
2020/12/19 06:39:08;;;;;;;92.00;41.03;;;;;;;-0.45;82.58;101138.20;126510;1098;26953;-57
2020/12/19 06:41:48;;;;;;;164.83;76.57;;;;;;;-0.45;82.40;101137.41;126644;1098;23380;-58
2020/12/19 06:44:19;;;;;;;179.47;79.27;;;;;;;-0.45;82.40;101148.38;126348;1098;23896;-57
2020/12/19 06:46:49;;;;;;;168.50;80.80;;;;;;;-0.44;83.16;101144.48;126658;1100;23300;-57
2020/12/19 06:49:38;;;;;;;222.22;103.92;;;;;;;-0.44;83.04;101144.48;126366;1099;23342;-58
2020/12/19 06:52:10;;;;;;;102.60;51.13;;;;;;;-0.45;82.89;101138.20;126207;1099;23332;-58
2020/12/19 06:54:42;;;;;;;67.73;29.33;;;;;;;-0.47;82.87;101137.80;126805;1098;27793;-57
2020/12/19 06:57:27;;;;;;;55.00;26.23;;;;;;;-0.48;83.03;101141.73;126360;1098;26801;-56
2020/12/19 07:00:17;;;;;;;43.67;18.80;;;;;;;-0.50;82.13;101132.30;126503;1098;23537;-60
2020/12/19 07:02:54;;;;;;;36.30;15.50;;;;;;;-0.52;82.89;101129.95;126637;1098;23371;-58
2020/12/19 07:05:25;;;;;;;38.50;17.63;;;;;;;-0.51;82.97;101134.25;127003;1098;24350;-57
2020/12/19 07:08:15;;;;;;;44.47;21.33;;;;;;;-0.49;82.21;101139.34;126295;1098;23329;-58
2020/12/19 07:10:45;;;;;;;43.20;21.30;;;;;;;-0.49;82.67;101134.66;126971;1098;23514;-55
2020/12/19 07:13:17;;;;;;;54.03;24.07;;;;;;;-0.47;83.12;101134.27;126412;1098;23379;-57
2020/12/19 07:15:47;;;;;;;46.73;19.67;;;;;;;-0.47;82.46;101126.83;126734;1098;23421;-56
2020/12/19 07:18:26;;;;;;;;;;;;;;;-0.51;82.83;101117.80;126517;1099;23394;-59
2020/12/19 07:20:59;;;;;;;47.10;18.10;;;;;;;-0.52;82.92;101129.16;126993;1098;21649;-57
2020/12/19 07:23:29;;;;;;;41.03;16.30;;;;;;;-0.54;82.43;101124.06;126432;1098;23343;-59
2020/12/19 07:25:59;;;;;;;38.38;15.58;;;;;;;-0.52;83.23;101131.90;126797;1098;23395;-57
2020/12/19 07:28:29;;;;;;;36.10;14.87;;;;;;;-0.51;83.37;101133.45;126417;1098;24171;-58
2020/12/19 07:30:58;;;;;;;35.97;14.03;;;;;;;-0.51;83.08;101136.99;127156;1093;23327;-60
2020/12/19 07:33:27;;;;;;;137.40;62.70;;;;;;;-0.48;83.17;101144.47;126217;1098;26314;-58
2020/12/19 07:35:58;;;;;;;265.20;137.37;;;;;;;-0.46;82.71;101144.08;126112;1099;23453;-54
2020/12/19 07:38:28;;;;;;;172.85;87.47;;;;;;;-0.47;82.99;101137.80;126756;1099;26435;-60
2020/12/19 07:40:57;;;;;;;107.13;51.80;;;;;;;-0.45;83.10;101140.16;126399;1098;23517;-57
2020/12/19 07:43:27;;;;;;;92.55;39.55;;;;;;;-0.40;83.54;101137.06;126262;1098;23400;-57
2020/12/19 07:45:58;;;;;;;98.60;42.87;;;;;;;-0.36;82.83;101129.64;126948;1100;23568;-57
2020/12/19 07:48:28;;;;;;;100.57;38.97;;;;;;;-0.33;83.43;101139.86;126054;1098;28329;-66
2020/12/19 07:51:08;;;;;;;87.25;37.35;;;;;;;-0.33;83.55;101137.11;126312;1098;23383;-60
2020/12/19 07:53:44;;;;;;;70.47;27.47;;;;;;;-0.31;82.75;101127.30;126553;1098;23361;-60
2020/12/19 07:56:14;;;;;;;61.47;23.43;;;;;;;-0.26;83.25;101129.70;126213;1099;23533;-58
2020/12/19 07:58:46;;;;;;;51.98;22.20;;;;;;;-0.21;82.88;101126.56;126298;1100;23491;-60
2020/12/19 08:01:16;;;;;;;43.50;17.83;;;;;;;-0.16;83.42;101130.91;126194;1098;25866;-58
2020/12/19 08:04:00;;;;;;;41.43;15.50;;;;;;;-0.14;83.55;101123.88;126304;1098;27838;-57
2020/12/19 08:06:42;;;;;;;37.80;15.97;;;;;;;-0.11;82.98;101119.58;126213;1098;23320;-60
2020/12/19 08:09:11;;;;;;;39.07;16.07;;;;;;;-0.10;83.23;101124.67;126362;1098;23386;-55
2020/12/19 08:11:48;;;;;;;43.07;18.07;;;;;;;-0.08;83.81;101121.53;126283;1098;23342;-57
2020/12/19 08:14:20;;;;;;;44.60;18.37;;;;;;;-0.05;83.15;101129.80;126531;1098;24824;-59
2020/12/19 08:16:50;;;;;;;39.30;17.27;;;;;;;-0.02;83.86;101128.22;126262;1099;26794;-57
2020/12/19 08:19:26;;;;;;;35.83;16.17;;;;;;;-0.01;83.72;101121.57;126450;1099;26016;-57
2020/12/19 08:22:01;;;;;;;38.33;17.90;;;;;;;0.01;83.52;101121.97;126118;1098;23316;-58
2020/12/19 08:24:31;;;;;;;34.77;13.37;;;;;;;0.02;83.71;101120.81;127585;1099;27916;-58
2020/12/19 08:27:35;;;;;;;32.23;14.70;;;;;;;0.04;84.39;101131.41;126374;1099;23799;-59
2020/12/19 08:30:16;;;;;;;37.13;15.60;;;;;;;0.07;84.06;101133.36;126335;1098;23344;-60
2020/12/19 08:32:45;;;;;;;;;;;;;;;0.12;83.81;101131.05;126268;1098;23442;-57
2020/12/19 08:35:21;;;;;;;33.53;13.73;;;;;;;0.18;83.90;101128.70;126265;1098;25370;-60
2020/12/19 08:37:50;;;;;;;30.17;12.73;;;;;;;0.21;84.57;101125.20;126961;1099;23553;-57
2020/12/19 08:40:21;;;;;;;36.40;13.78;;;;;;;0.22;84.28;101132.24;126388;1098;23327;-58
2020/12/19 08:42:50;;;;;;;;;;;;;;;0.24;84.48;101122.45;126569;1098;26264;-57
2020/12/19 08:45:28;;;;;;;33.63;11.90;;;;;;;0.24;85.05;101132.64;126330;1098;21475;-55
2020/12/19 08:48:00;;;;;;;29.37;12.70;;;;;;;0.27;85.15;101129.14;126875;1098;23328;-57
2020/12/19 08:50:37;;;;;;;30.57;12.60;;;;;;;0.32;85.11;101123.25;126266;1099;23326;-57
2020/12/19 08:53:16;;;;;;;31.87;10.17;;;;;;;0.36;84.74;101135.83;126227;1099;27796;-59
2020/12/19 08:55:47;;;;;;;29.33;11.17;;;;;;;0.43;84.89;101121.33;126991;1099;23395;-56
2020/12/19 08:58:26;;;;;;;32.80;11.57;;;;;;;0.50;85.14;101127.61;126692;1099;23403;-59
2020/12/19 09:00:59;;;;;;;32.03;11.10;;;;;;;0.54;84.93;101133.10;126440;1099;23539;-54
2020/12/19 09:03:33;;;;;;;39.40;14.60;;;;;;;0.58;84.95;101137.44;126505;1098;26888;-59
2020/12/19 09:06:04;;;;;;;39.50;14.33;;;;;;;0.63;85.13;101128.03;126199;1098;24654;-53
2020/12/19 09:08:35;;;;;;;38.83;12.90;;;;;;;0.66;85.23;101136.27;126229;1098;23445;-56
2020/12/19 09:11:06;;;;;;;40.87;14.63;;;;;;;0.71;84.87;101126.86;127280;1098;23366;-60
2020/12/19 09:13:34;;;;;;;;;;;;;;;0.76;85.01;101121.78;126867;1098;23555;-56
2020/12/19 09:16:10;;;;;;;36.90;13.90;;;;;;;0.82;84.60;101116.67;126621;1098;21569;-55
2020/12/19 09:18:40;;;;;;;28.17;11.33;;;;;;;0.88;85.52;101119.80;126169;1099;23533;-58
2020/12/19 09:21:10;;;;;;;;;;;;;;;0.92;84.97;101110.39;125895;1099;23343;-54
2020/12/19 09:23:39;;;;;;;29.10;11.30;;;;;;;0.95;84.90;101108.83;126225;1098;21711;-61
2020/12/19 09:26:09;;;;;;;35.17;12.43;;;;;;;0.99;84.68;101107.66;126487;1098;23379;-54
2020/12/19 09:28:39;;;;;;;32.15;11.53;;;;;;;1.02;84.83;101103.30;126579;1098;25172;-58
2020/12/19 09:31:09;;;;;;;31.10;12.03;;;;;;;1.07;84.93;101100.97;126264;1098;23395;-57
2020/12/19 09:33:38;;;;;;;29.83;9.93;;;;;;;1.12;85.45;101100.55;126216;1098;23379;-55
2020/12/19 09:36:07;;;;;;;25.73;10.10;;;;;;;1.18;85.03;101098.21;126009;1098;23406;-56
2020/12/19 09:38:36;;;;;;;31.65;10.90;;;;;;;1.23;85.01;101100.55;127397;1098;26786;-54
2020/12/19 09:41:09;;;;;;;31.40;12.77;;;;;;;1.31;85.35;101099.35;126445;1098;23418;-56
2020/12/19 09:43:39;;;;;;;28.03;10.60;;;;;;;1.36;85.06;101098.97;126373;1098;23328;-55
2020/12/19 09:46:13;;;;;;;36.95;14.15;;;;;;;1.39;85.34;101096.20;126482;1094;23528;-58
2020/12/19 09:48:42;;;;;;;49.73;21.60;;;;;;;1.46;85.17;101092.65;126192;1098;23983;-56
2020/12/19 09:51:12;;;;;;;37.53;16.27;;;;;;;1.49;85.58;101095.38;126734;1098;23547;-54
2020/12/19 09:53:42;;;;;;;42.95;19.73;;;;;;;1.54;85.33;101094.99;126605;1098;23704;-58
2020/12/19 09:56:11;;;;;;;50.20;20.87;;;;;;;1.60;85.36;101092.61;126012;1098;23382;-58
2020/12/19 09:58:41;;;;;;;35.00;13.57;;;;;;;1.67;84.95;101094.56;126742;1098;23338;-53
2020/12/19 10:01:10;;;;;;;30.20;11.17;;;;;;;1.74;84.90;101097.30;125998;1098;23393;-58
2020/12/19 10:03:39;;;;;;;28.83;11.63;;;;;;;1.79;85.00;101094.91;126048;1098;23461;-56
2020/12/19 10:06:08;;;;;;;30.70;11.90;;;;;;;1.85;85.40;101098.82;126028;1100;23339;-56
2020/12/19 10:08:38;;;;;;;30.83;11.97;;;;;;;1.90;85.21;101095.67;126148;1099;28476;-59
2020/12/19 10:11:07;;;;;;;27.30;10.95;;;;;;;1.93;84.66;101089.34;126363;1099;23394;-54
2020/12/19 10:13:36;;;;;;;30.33;12.83;;;;;;;1.98;84.75;101085.40;126014;1098;23333;-53
2020/12/19 10:16:06;;;;;;;35.90;12.23;;;;;;;2.01;84.50;101085.38;126345;1098;23336;-57
2020/12/19 10:18:35;;;;;;;31.90;12.45;;;;;;;2.04;84.67;101081.83;126187;1099;27749;-54
2020/12/19 10:21:11;;;;;;;28.87;11.07;;;;;;;2.10;84.53;101082.19;126062;1099;23452;-58
2020/12/19 10:23:41;;;;;;;30.93;10.30;;;;;;;2.15;84.64;101077.03;126502;1099;23379;-62
2020/12/19 10:26:12;;;;;;;28.67;11.83;;;;;;;2.22;84.50;101087.23;126029;1099;26421;-63
2020/12/19 10:28:42;;;;;;;28.15;10.85;;;;;;;2.26;84.71;101082.48;127127;1099;23496;-64
2020/12/19 10:31:12;;;;;;;27.37;10.57;;;;;;;2.28;84.63;101085.63;126095;1100;23340;-65
2020/12/19 10:33:42;;;;;;;27.62;10.75;;;;;;;2.32;84.67;101087.17;126579;1100;25076;-61
2020/12/19 10:36:15;;;;;;;32.20;12.20;;;;;;;2.37;84.51;101084.02;126134;1098;23802;-63
2020/12/19 10:38:45;;;;;;;28.67;9.67;;;;;;;2.40;84.92;101085.95;126268;1098;29787;-58
2020/12/19 10:41:15;;;;;;;24.63;10.23;;;;;;;2.45;84.65;101073.72;126293;1093;23382;-58
2020/12/19 10:43:44;;;;;;;32.58;12.55;;;;;;;2.50;84.36;101072.52;126208;1098;23555;-59
2020/12/19 10:46:20;;;;;;;25.92;9.98;;;;;;;2.52;84.21;101081.16;126293;1098;24881;-63
2020/12/19 10:48:50;;;;;;;25.20;9.20;;;;;;;2.57;84.53;101075.20;126136;1098;23435;-62
2020/12/19 10:51:27;;;;;;;24.47;8.98;;;;;;;2.59;84.60;101076.38;126080;1098;24823;-60
2020/12/19 10:53:58;;;;;;;25.73;9.43;;;;;;;2.62;84.64;101061.00;126037;1098;25029;-63
2020/12/19 10:56:30;;;;;;;28.03;10.07;;;;;;;2.66;84.20;101064.52;126022;1099;23326;-63
2020/12/19 10:59:00;;;;;;;30.80;11.40;;;;;;;2.67;84.60;101064.09;126298;1100;23383;-63
2020/12/19 11:01:30;;;;;;;32.17;11.55;;;;;;;2.72;84.38;101055.41;126180;1099;23342;-63
2020/12/19 11:04:00;;;;;;;25.10;8.05;;;;;;;2.78;84.45;101052.99;126062;1098;23376;-62
2020/12/19 11:06:30;;;;;;;22.20;7.40;;;;;;;2.82;84.14;101056.50;126068;1094;23400;-62
2020/12/19 11:08:59;;;;;;;24.43;8.23;;;;;;;2.88;84.35;101055.66;126493;1100;23456;-62
2020/12/19 11:11:29;;;;;;;31.23;10.40;;;;;;;2.92;84.09;101061.14;126260;1098;23328;-62
2020/12/19 11:13:59;;;;;;;30.23;11.20;;;;;;;2.96;83.98;101062.68;126189;1098;23386;-61
2020/12/19 11:16:30;;;;;;;27.58;9.70;;;;;;;2.99;84.43;101052.81;126324;1100;26785;-61
2020/12/19 11:18:59;;;;;;;28.63;10.43;;;;;;;3.02;84.15;101057.53;126378;1098;23381;-62
2020/12/19 11:21:30;;;;;;;33.05;12.37;;;;;;;3.05;84.24;101057.48;126228;1099;23343;-62
2020/12/19 11:23:59;;;;;;;29.70;10.65;;;;;;;3.07;84.00;101051.55;126244;1099;23529;-62
2020/12/19 11:26:28;;;;;;;26.15;9.70;;;;;;;3.07;83.95;101048.80;126272;1098;23442;-62